Terminal Aerodrome Forecast
Issued by NWS Fort Wayne, IN

Home | Current Version | Previous Version | Text Only | Print | Product List | Glossary On
Versions: 1 2 3 4 5 6 7 8 9 10 11 12 13 14 15 16
000
FTUS43 KIWX 051700
TAFFWA
TAF
KFWA 051725Z 0518/0618 20010KT P6SM SCT020 BKN070
     FM060800 VRB03KT 3SM BR BKN035
      TEMPO 0610/0613 1SM BR
     FM061500 24005KT P6SM BKN035=

USA.gov is the U.S. government's official web portal to all federal, state and local government web resources and services.